createdAt,value
2022-10-25T00:01:21.463Z,79.99
2022-10-25T00:03:48.602Z,79.71
2022-10-25T00:06:15.793Z,80.24
2022-10-25T00:08:42.567Z,80.32
2022-10-25T00:11:20.301Z,80.40
2022-10-25T00:13:50.427Z,79.96
2022-10-25T00:16:21.289Z,79.92
2022-10-25T00:18:48.409Z,80.89
2022-10-25T00:21:15.198Z,80.58
2022-10-25T00:23:42.141Z,79.96
2022-10-25T00:26:10.963Z,80.26
2022-10-25T00:28:38.403Z,80.13
2022-10-25T00:31:15.044Z,80.37
2022-10-25T00:33:43.566Z,80.92
2022-10-25T00:36:15.243Z,80.81
2022-10-25T00:38:42.965Z,80.95
2022-10-25T00:41:11.266Z,80.53
2022-10-25T00:43:47.729Z,80.65
2022-10-25T00:46:20.272Z,80.32
2022-10-25T00:49:18.703Z,79.95
2022-10-25T00:51:56.305Z,80.91
2022-10-25T00:54:29.889Z,80.20
2022-10-25T00:57:00.615Z,79.99
2022-10-25T00:59:28.215Z,79.85
2022-10-25T01:01:56.562Z,79.81
2022-10-25T01:04:28.551Z,79.61
2022-10-25T01:06:55.641Z,79.65
2022-10-25T01:09:27.773Z,79.67
2022-10-25T01:11:55.194Z,80.05
2022-10-25T01:14:23.418Z,79.93
2022-10-25T01:17:23.704Z,79.95
2022-10-25T01:20:32.136Z,79.70
2022-10-25T01:23:49.376Z,79.95
2022-10-25T01:27:10.587Z,80.43
2022-10-25T01:30:17.341Z,80.19
2022-10-25T01:33:07.731Z,80.08
2022-10-25T01:36:18.140Z,79.68
2022-10-25T01:39:10.585Z,80.28
2022-10-25T01:41:45.322Z,79.89
2022-10-25T01:44:50.032Z,80.16
2022-10-25T01:47:22.055Z,80.43
2022-10-25T01:50:21.035Z,80.29
2022-10-25T01:52:47.867Z,80.53
2022-10-25T01:55:15.740Z,80.69
2022-10-25T01:58:11.251Z,80.70
2022-10-25T02:01:13.300Z,80.73
2022-10-25T02:04:07.763Z,80.39
2022-10-25T02:07:00.666Z,80.19
2022-10-25T02:09:34.268Z,80.39
2022-10-25T02:12:04.136Z,80.55
2022-10-25T02:14:35.986Z,80.48
2022-10-25T02:17:23.377Z,80.46
2022-10-25T02:19:56.743Z,80.44
2022-10-25T02:22:29.721Z,81.11
2022-10-25T02:24:57.982Z,81.01
2022-10-25T02:27:25.989Z,81.01
2022-10-25T02:29:54.083Z,80.81
2022-10-25T02:32:21.674Z,80.42
2022-10-25T02:34:49.517Z,80.63
2022-10-25T02:37:17.461Z,80.45
2022-10-25T02:39:46.045Z,80.54
2022-10-25T02:42:12.950Z,80.53
2022-10-25T02:44:39.761Z,80.49
2022-10-25T02:47:06.573Z,80.99
2022-10-25T02:49:33.364Z,80.74
2022-10-25T02:52:00.245Z,80.85
2022-10-25T02:54:27.040Z,80.93
2022-10-25T02:56:54.036Z,81.03
2022-10-25T02:59:21.369Z,80.71
2022-10-25T03:01:48.948Z,80.75
2022-10-25T03:04:15.893Z,80.81
2022-10-25T03:06:42.684Z,80.37
2022-10-25T03:09:09.576Z,80.16
2022-10-25T03:11:36.347Z,80.04
2022-10-25T03:14:03.133Z,80.44
2022-10-25T03:16:29.988Z,80.68
2022-10-25T03:18:58.580Z,80.66
2022-10-25T03:21:25.822Z,80.57
2022-10-25T03:23:53.224Z,80.08
2022-10-25T03:26:20.212Z,80.85
2022-10-25T03:28:47.000Z,80.86
2022-10-25T03:31:16.720Z,81.12
2022-10-25T03:33:43.727Z,80.40
2022-10-25T03:36:10.993Z,80.00
2022-10-25T03:38:37.808Z,79.35
2022-10-25T03:41:04.919Z,80.28
2022-10-25T03:43:31.761Z,80.54
2022-10-25T03:45:58.633Z,80.71
2022-10-25T03:48:25.640Z,80.82
2022-10-25T03:50:54.244Z,80.93
2022-10-25T03:53:21.287Z,80.67
2022-10-25T03:55:49.770Z,80.71
2022-10-25T03:58:17.254Z,80.73
2022-10-25T04:00:44.268Z,80.69
2022-10-25T04:03:11.313Z,81.05
2022-10-25T04:05:38.639Z,81.06
2022-10-25T04:08:06.171Z,80.73
2022-10-25T04:10:32.969Z,81.11
2022-10-25T04:12:59.864Z,80.87
2022-10-25T04:15:26.695Z,81.14
2022-10-25T04:17:53.769Z,80.88
2022-10-25T04:20:21.518Z,80.60
2022-10-25T04:22:58.137Z,81.06
2022-10-25T04:25:27.337Z,80.86
2022-10-25T04:27:54.689Z,80.87
2022-10-25T04:30:21.586Z,81.13
2022-10-25T04:32:48.810Z,80.72
2022-10-25T04:35:16.080Z,80.84
2022-10-25T04:37:42.868Z,81.46
2022-10-25T04:40:10.934Z,81.64
2022-10-25T04:42:37.721Z,81.64
2022-10-25T04:45:04.910Z,82.07
2022-10-25T04:47:33.221Z,82.06
2022-10-25T04:50:00.230Z,81.76
2022-10-25T04:52:29.838Z,81.53
2022-10-25T04:54:57.034Z,81.65
2022-10-25T04:57:25.095Z,81.32
2022-10-25T04:59:52.659Z,81.11
2022-10-25T05:02:19.748Z,81.41
2022-10-25T05:04:46.536Z,81.45
2022-10-25T05:07:13.325Z,81.70
2022-10-25T05:09:42.655Z,81.69
2022-10-25T05:12:15.482Z,81.36
2022-10-25T05:14:45.070Z,81.56
2022-10-25T05:17:11.900Z,81.37
2022-10-25T05:19:38.755Z,80.92
2022-10-25T05:22:05.593Z,81.20
2022-10-25T05:24:32.404Z,81.14
2022-10-25T05:26:59.204Z,81.17
2022-10-25T05:29:26.094Z,81.30
2022-10-25T05:31:52.881Z,81.71
2022-10-25T05:34:19.681Z,81.75
2022-10-25T05:36:46.548Z,81.14
2022-10-25T05:39:13.358Z,81.43
2022-10-25T05:41:40.221Z,81.40
2022-10-25T05:44:07.180Z,81.64
2022-10-25T05:46:34.036Z,81.96
2022-10-25T05:49:01.135Z,81.87
2022-10-25T05:51:35.063Z,81.63
2022-10-25T05:54:07.345Z,81.48
2022-10-25T05:56:35.399Z,81.24
2022-10-25T05:59:09.560Z,81.75
2022-10-25T06:01:38.689Z,82.01
2022-10-25T06:04:05.862Z,81.81
2022-10-25T06:06:32.892Z,81.75
2022-10-25T06:09:00.894Z,81.90
2022-10-25T06:11:29.589Z,81.51
2022-10-25T06:13:56.524Z,81.27
2022-10-25T06:16:24.527Z,81.18
2022-10-25T06:18:52.909Z,80.86
2022-10-25T06:21:27.184Z,80.45
2022-10-25T06:23:54.978Z,80.67
2022-10-25T06:26:25.777Z,80.59
2022-10-25T06:28:55.623Z,80.79
2022-10-25T06:31:23.350Z,80.83
2022-10-25T06:33:50.585Z,81.31
2022-10-25T06:36:20.938Z,81.05
2022-10-25T06:38:49.151Z,81.25
2022-10-25T06:41:24.448Z,82.56
2022-10-25T06:43:51.996Z,82.25
2022-10-25T06:46:28.469Z,81.79
2022-10-25T06:48:57.329Z,81.54
2022-10-25T06:51:26.051Z,81.95
2022-10-25T06:53:58.344Z,82.04
2022-10-25T06:56:25.846Z,82.03
2022-10-25T06:58:53.076Z,81.56
2022-10-25T07:01:22.620Z,81.01
2022-10-25T07:03:50.913Z,80.55
2022-10-25T07:06:23.177Z,79.44
2022-10-25T07:08:55.038Z,78.96
2022-10-25T07:11:23.364Z,78.38
2022-10-25T07:13:50.194Z,76.64
2022-10-25T07:16:19.396Z,74.37
2022-10-25T07:18:47.125Z,74.03
2022-10-25T07:21:20.836Z,71.21
2022-10-25T07:23:49.531Z,71.06
2022-10-25T07:26:23.636Z,70.03
2022-10-25T07:28:53.191Z,70.07
2022-10-25T07:31:43.035Z,66.14
2022-10-25T07:34:13.548Z,67.24
2022-10-25T07:36:40.862Z,68.88
2022-10-25T07:39:07.786Z,68.52
2022-10-25T07:41:34.557Z,67.35
2022-10-25T07:44:01.411Z,69.07
2022-10-25T07:46:28.188Z,69.35
2022-10-25T07:48:55.071Z,68.49
2022-10-25T07:51:21.958Z,70.58
2022-10-25T07:53:49.817Z,69.48
2022-10-25T07:56:23.080Z,70.28
2022-10-25T07:58:52.213Z,71.13
2022-10-25T08:01:25.551Z,71.10
2022-10-25T08:03:53.753Z,69.66
2022-10-25T08:06:23.010Z,69.14
2022-10-25T08:08:50.462Z,69.39
2022-10-25T08:11:17.920Z,69.17
2022-10-25T08:13:44.708Z,66.03
2022-10-25T08:16:11.510Z,61.89
2022-10-25T08:18:38.289Z,58.86
2022-10-25T08:21:05.301Z,60.43
2022-10-25T08:23:33.061Z,59.96
2022-10-25T08:26:02.687Z,60.62
2022-10-25T08:28:33.116Z,59.98
2022-10-25T08:31:01.161Z,61.65
2022-10-25T08:33:28.949Z,61.81
2022-10-25T08:35:55.841Z,63.16
2022-10-25T08:38:22.663Z,63.67
2022-10-25T08:41:15.774Z,63.25
2022-10-25T08:44:08.588Z,62.01
2022-10-25T08:46:55.842Z,59.39
2022-10-25T08:49:36.281Z,59.81
2022-10-25T08:52:05.838Z,57.72
2022-10-25T08:54:39.028Z,53.77
2022-10-25T08:57:19.715Z,55.28
2022-10-25T08:59:52.270Z,54.72
2022-10-25T09:02:39.584Z,54.45
2022-10-25T09:05:40.315Z,52.65
2022-10-25T09:08:34.831Z,56.95
2022-10-25T09:11:19.637Z,57.40
2022-10-25T09:14:05.249Z,56.22
2022-10-25T09:16:45.956Z,55.78
2022-10-25T09:19:44.429Z,53.99
2022-10-25T09:22:29.069Z,54.49
2022-10-25T09:25:08.423Z,54.69
2022-10-25T09:27:52.751Z,54.38
2022-10-25T09:30:19.669Z,51.89
2022-10-25T09:32:51.581Z,51.96
2022-10-25T09:35:26.233Z,52.69
2022-10-25T09:37:59.397Z,50.29
2022-10-25T09:40:32.723Z,50.15
2022-10-25T09:45:48.104Z,49.64
2022-10-25T09:48:46.580Z,50.89
2022-10-25T09:51:24.695Z,50.04
2022-10-25T09:53:53.149Z,48.67
2022-10-25T09:56:20.083Z,48.61
2022-10-25T09:58:47.420Z,48.16
2022-10-25T10:01:20.309Z,46.07
2022-10-25T10:03:50.864Z,46.34
2022-10-25T10:06:29.488Z,48.75
2022-10-25T10:09:08.038Z,49.34
2022-10-25T10:11:36.613Z,50.53
2022-10-25T10:14:09.956Z,50.66
2022-10-25T10:16:45.262Z,50.43
2022-10-25T10:19:26.135Z,49.81
2022-10-25T10:22:15.061Z,49.34
2022-10-25T10:25:00.367Z,48.19
2022-10-25T10:27:28.827Z,47.88
2022-10-25T10:30:00.448Z,46.72
2022-10-25T10:32:32.984Z,45.69
2022-10-25T10:35:00.056Z,46.54
2022-10-25T10:37:29.574Z,44.95
2022-10-25T10:40:01.054Z,45.30
2022-10-25T10:42:34.659Z,45.34
2022-10-25T10:45:13.189Z,41.46
2022-10-25T10:47:52.204Z,43.20
2022-10-25T10:50:26.519Z,43.22
2022-10-25T10:52:55.217Z,44.45
2022-10-25T10:55:39.760Z,41.09
2022-10-25T10:58:32.039Z,43.12
2022-10-25T11:01:06.768Z,40.87
2022-10-25T11:03:53.513Z,41.77
2022-10-25T11:06:36.515Z,40.65
2022-10-25T11:09:19.229Z,40.24
2022-10-25T11:12:11.489Z,39.09
2022-10-25T11:14:38.587Z,40.59
2022-10-25T11:17:20.281Z,39.84
2022-10-25T11:20:07.326Z,38.34
2022-10-25T11:25:38.175Z,36.86
2022-10-25T11:29:00.883Z,35.25
2022-10-25T11:32:07.502Z,36.06
2022-10-25T11:35:41.073Z,34.68
2022-10-25T11:38:39.641Z,33.06
2022-10-25T11:41:27.494Z,32.50
2022-10-25T11:44:02.291Z,33.98
2022-10-25T11:47:09.416Z,34.95
2022-10-25T11:50:15.093Z,33.46
2022-10-25T11:52:59.950Z,33.21
2022-10-25T11:55:42.979Z,33.63
2022-10-25T11:58:50.787Z,33.64
2022-10-25T12:01:48.813Z,33.23
2022-10-25T12:04:15.576Z,31.55
2022-10-25T12:07:08.625Z,32.43
2022-10-25T12:09:47.254Z,30.10
2022-10-25T12:12:22.309Z,30.12
2022-10-25T12:14:55.058Z,28.46
2022-10-25T12:17:34.054Z,29.33
2022-10-25T12:20:07.601Z,31.46
2022-10-25T12:22:40.219Z,34.96
2022-10-25T12:25:35.253Z,37.67
2022-10-25T12:28:18.219Z,39.34
2022-10-25T12:30:46.397Z,40.56
2022-10-25T12:33:19.017Z,40.42
2022-10-25T12:35:51.414Z,41.10
2022-10-25T12:38:31.530Z,41.38
2022-10-25T12:41:06.489Z,36.05
2022-10-25T12:44:06.457Z,31.43
2022-10-25T12:47:21.136Z,31.78
2022-10-25T12:49:59.597Z,28.25
2022-10-25T12:53:25.141Z,28.64
2022-10-25T12:56:46.561Z,26.60
2022-10-25T12:59:56.302Z,26.12
2022-10-25T13:02:47.806Z,26.80
2022-10-25T13:05:49.914Z,26.87
2022-10-25T13:08:20.181Z,26.20
2022-10-25T13:10:57.414Z,24.80
2022-10-25T13:13:27.893Z,25.58
2022-10-25T13:15:59.020Z,24.02
2022-10-25T13:18:29.652Z,24.36
2022-10-25T13:20:56.550Z,23.45
2022-10-25T13:23:42.228Z,23.87
2022-10-25T13:26:11.573Z,25.10
2022-10-25T13:28:52.176Z,25.44
2022-10-25T13:31:34.687Z,23.76
2022-10-25T13:34:13.421Z,24.16
2022-10-25T13:36:55.284Z,24.03
2022-10-25T13:39:45.106Z,24.28
2022-10-25T13:42:14.874Z,24.57
2022-10-25T13:45:04.874Z,24.82
2022-10-25T13:47:40.924Z,24.32
2022-10-25T13:50:42.730Z,23.59
2022-10-25T13:53:38.516Z,22.52
2022-10-25T13:56:16.108Z,23.29
2022-10-25T13:58:57.405Z,22.36
2022-10-25T14:01:25.334Z,22.66
2022-10-25T14:03:55.076Z,24.58
2022-10-25T14:06:32.953Z,25.86
2022-10-25T14:09:30.901Z,25.50
2022-10-25T14:12:06.565Z,26.78
2022-10-25T14:14:47.605Z,24.96
2022-10-25T14:17:31.571Z,24.22
2022-10-25T14:20:02.603Z,24.00
2022-10-25T14:22:42.502Z,23.88
2022-10-25T14:25:18.317Z,25.56
2022-10-25T14:27:45.338Z,27.48
2022-10-25T14:30:21.509Z,31.04
2022-10-25T14:33:04.103Z,32.93
2022-10-25T14:35:45.277Z,35.29
2022-10-25T14:38:22.102Z,33.46
2022-10-25T14:41:12.612Z,36.18
2022-10-25T14:43:39.706Z,34.54
2022-10-25T14:46:06.395Z,31.92
2022-10-25T14:48:33.755Z,29.65
2022-10-25T14:51:22.174Z,29.32
2022-10-25T14:53:56.849Z,29.38
2022-10-25T14:56:29.434Z,29.05
2022-10-25T14:58:57.241Z,32.64
2022-10-25T15:01:24.623Z,35.31
2022-10-25T15:03:56.260Z,38.24
2022-10-25T15:06:27.063Z,40.04
2022-10-25T15:09:37.322Z,41.78
2022-10-25T15:12:17.430Z,44.04
2022-10-25T15:14:46.482Z,45.21
2022-10-25T15:17:27.442Z,45.92
2022-10-25T15:20:13.852Z,46.97
2022-10-25T15:22:43.865Z,47.05
2022-10-25T15:25:40.394Z,47.94
2022-10-25T15:28:18.363Z,48.74
2022-10-25T15:30:47.823Z,50.37
2022-10-25T15:33:29.012Z,51.80
2022-10-25T15:36:00.215Z,52.52
2022-10-25T15:38:47.754Z,52.88
2022-10-25T15:41:17.985Z,53.25
2022-10-25T15:43:44.776Z,53.47
2022-10-25T15:46:33.082Z,54.13
2022-10-25T15:49:08.220Z,55.94
2022-10-25T15:51:39.341Z,57.13
2022-10-25T15:54:12.695Z,57.22
2022-10-25T15:56:39.486Z,57.87
2022-10-25T15:59:06.334Z,58.10
2022-10-25T16:01:33.259Z,58.83
2022-10-25T16:04:00.156Z,59.11
2022-10-25T16:06:27.013Z,60.55
2022-10-25T16:08:53.787Z,60.78
2022-10-25T16:11:21.420Z,61.19
2022-10-25T16:13:51.835Z,61.92
2022-10-25T16:16:41.767Z,62.12
2022-10-25T16:19:18.581Z,62.96
2022-10-25T16:21:45.585Z,63.02
2022-10-25T16:24:12.752Z,62.97
2022-10-25T16:26:46.462Z,63.80
2022-10-25T16:29:24.995Z,63.94
2022-10-25T16:31:53.805Z,64.08
2022-10-25T16:34:20.722Z,64.28
2022-10-25T16:36:50.246Z,64.72
2022-10-25T16:39:17.209Z,65.03
2022-10-25T16:41:46.609Z,65.50
2022-10-25T16:44:17.431Z,65.48
2022-10-25T16:46:45.166Z,67.08
2022-10-25T16:49:12.568Z,67.42
2022-10-25T16:51:40.101Z,67.57
2022-10-25T16:54:07.397Z,67.76
2022-10-25T16:56:34.199Z,67.96
2022-10-25T16:59:00.986Z,67.84
2022-10-25T17:01:34.264Z,67.58
2022-10-25T17:04:04.122Z,67.74
2022-10-25T17:06:46.453Z,67.72
2022-10-25T17:09:13.252Z,68.10
2022-10-25T17:11:40.375Z,68.22
2022-10-25T17:14:09.514Z,68.78
2022-10-25T17:16:37.055Z,69.22
2022-10-25T17:19:04.185Z,69.58
2022-10-25T17:21:33.190Z,69.55
2022-10-25T17:24:00.199Z,70.58
2022-10-25T17:26:26.992Z,70.87
2022-10-25T17:28:53.961Z,70.58
2022-10-25T17:31:21.085Z,71.21
2022-10-25T17:33:48.024Z,71.43
2022-10-25T17:36:18.398Z,71.20
2022-10-25T17:38:45.648Z,71.23
2022-10-25T17:41:13.845Z,71.93
2022-10-25T17:43:41.613Z,72.22
2022-10-25T17:46:17.097Z,72.16
2022-10-25T17:48:43.957Z,72.20
2022-10-25T17:51:13.930Z,72.56
2022-10-25T17:53:41.175Z,72.43
2022-10-25T17:56:18.425Z,72.34
2022-10-25T17:58:47.566Z,72.64
2022-10-25T18:01:18.788Z,72.51
2022-10-25T18:03:46.006Z,72.81
2022-10-25T18:06:17.214Z,72.65
2022-10-25T18:08:45.367Z,72.84
2022-10-25T18:11:23.106Z,72.51
2022-10-25T18:13:52.481Z,72.49
2022-10-25T18:16:21.637Z,72.62
2022-10-25T18:18:48.983Z,72.62
2022-10-25T18:21:16.252Z,72.73
2022-10-25T18:23:43.264Z,72.49
2022-10-25T18:26:12.458Z,72.70
2022-10-25T18:28:39.772Z,72.42
2022-10-25T18:31:12.653Z,72.79
2022-10-25T18:33:41.790Z,72.79
2022-10-25T18:36:15.845Z,72.58
2022-10-25T18:38:42.663Z,72.65
2022-10-25T18:41:17.395Z,72.45
2022-10-25T18:43:44.557Z,72.48
2022-10-25T18:46:11.687Z,72.13
2022-10-25T18:48:38.523Z,72.33
2022-10-25T18:51:09.193Z,72.53
2022-10-25T18:53:36.369Z,72.38
2022-10-25T18:56:03.233Z,72.60
2022-10-25T18:58:33.160Z,72.39
2022-10-25T19:01:11.720Z,72.34
2022-10-25T19:03:39.481Z,72.53
2022-10-25T19:06:07.428Z,72.53
2022-10-25T19:08:35.676Z,72.41
2022-10-25T19:11:05.090Z,71.74
2022-10-25T19:13:31.967Z,72.21
2022-10-25T19:15:59.297Z,72.32
2022-10-25T19:18:28.535Z,72.35
2022-10-25T19:21:00.773Z,72.37
2022-10-25T19:23:27.650Z,72.48
2022-10-25T19:25:54.765Z,72.84
2022-10-25T19:28:21.860Z,73.00
2022-10-25T19:30:48.644Z,72.87
2022-10-25T19:33:15.523Z,72.87
2022-10-25T19:35:42.361Z,73.46
2022-10-25T19:38:09.147Z,73.21
2022-10-25T19:40:35.942Z,74.13
2022-10-25T19:43:02.745Z,74.96
2022-10-25T19:45:29.545Z,74.06
2022-10-25T19:47:58.028Z,73.80
2022-10-25T19:50:24.889Z,73.88
2022-10-25T19:52:51.994Z,73.64
2022-10-25T19:55:18.799Z,73.54
2022-10-25T19:57:45.935Z,73.47
2022-10-25T20:00:13.750Z,73.79
2022-10-25T20:02:40.761Z,73.86
2022-10-25T20:05:08.298Z,74.02
2022-10-25T20:07:35.861Z,73.63
2022-10-25T20:10:02.668Z,73.83
2022-10-25T20:12:30.454Z,74.01
2022-10-25T20:14:58.388Z,73.96
2022-10-25T20:17:25.205Z,74.25
2022-10-25T20:19:52.016Z,73.65
2022-10-25T20:22:18.818Z,73.59
2022-10-25T20:24:45.707Z,74.03
2022-10-25T20:27:12.813Z,73.84
2022-10-25T20:29:40.093Z,74.36
2022-10-25T20:32:06.931Z,74.31
2022-10-25T20:34:35.184Z,74.17
2022-10-25T20:37:03.744Z,74.64
2022-10-25T20:39:30.627Z,74.37
2022-10-25T20:41:57.481Z,74.55
2022-10-25T20:44:24.362Z,74.56
2022-10-25T20:46:51.272Z,74.96
2022-10-25T20:49:18.121Z,75.42
2022-10-25T20:51:44.908Z,75.76
2022-10-25T20:54:11.697Z,75.31
2022-10-25T20:56:39.485Z,75.34
2022-10-25T20:59:06.888Z,75.28
2022-10-25T21:01:33.900Z,75.58
2022-10-25T21:04:00.858Z,75.53
2022-10-25T21:06:27.727Z,75.78
2022-10-25T21:08:54.548Z,75.54
2022-10-25T21:11:21.363Z,75.20
2022-10-25T21:13:48.232Z,75.47
2022-10-25T21:16:16.561Z,76.05
2022-10-25T21:18:44.160Z,76.19
2022-10-25T21:21:19.619Z,76.33
2022-10-25T21:23:47.464Z,76.30
2022-10-25T21:26:14.385Z,76.31
2022-10-25T21:28:41.755Z,76.25
2022-10-25T21:31:12.240Z,76.29
2022-10-25T21:33:39.368Z,76.06
2022-10-25T21:36:11.308Z,75.71
2022-10-25T21:38:38.754Z,75.84
2022-10-25T21:41:26.325Z,75.71
2022-10-25T21:43:54.671Z,76.13
2022-10-25T21:46:23.886Z,75.99
2022-10-25T21:48:51.421Z,75.75
2022-10-25T21:51:24.305Z,75.92
2022-10-25T21:56:23.366Z,76.15
2022-10-25T21:58:50.882Z,76.00
2022-10-25T22:01:21.293Z,76.11
2022-10-25T22:03:48.360Z,76.53
2022-10-25T22:06:18.895Z,76.40
2022-10-25T22:08:46.084Z,76.20
2022-10-25T22:11:21.148Z,76.24
2022-10-25T22:13:48.492Z,75.93
2022-10-25T22:16:18.309Z,75.98
2022-10-25T22:19:00.039Z,75.85
2022-10-25T22:21:32.721Z,75.86
2022-10-25T22:23:59.525Z,75.67
2022-10-25T22:26:26.647Z,75.57
2022-10-25T22:28:56.056Z,75.79
2022-10-25T22:31:23.722Z,75.57
2022-10-25T22:33:56.090Z,75.73
2022-10-25T22:36:30.020Z,75.51
2022-10-25T22:38:57.614Z,75.24
2022-10-25T22:41:27.032Z,75.20
2022-10-25T22:43:53.947Z,76.05
2022-10-25T22:46:28.415Z,75.98
2022-10-25T22:48:57.649Z,76.00
2022-10-25T22:51:27.576Z,75.69
2022-10-25T22:53:54.867Z,75.35
2022-10-25T22:56:25.364Z,75.17
2022-10-25T22:58:59.821Z,75.29
2022-10-25T23:01:30.245Z,76.16
2022-10-25T23:03:58.968Z,76.52
2022-10-25T23:06:31.719Z,76.88
2022-10-25T23:09:01.432Z,77.04
2022-10-25T23:11:33.282Z,76.72
2022-10-25T23:14:01.524Z,76.78
2022-10-25T23:16:29.557Z,76.29
2022-10-25T23:18:56.744Z,76.38
2022-10-25T23:21:26.711Z,76.31
2022-10-25T23:23:54.749Z,76.65
2022-10-25T23:26:30.592Z,76.43
2022-10-25T23:28:57.685Z,76.92
2022-10-25T23:31:25.560Z,77.15
2022-10-25T23:33:58.108Z,76.65
2022-10-25T23:36:29.156Z,76.66
2022-10-25T23:38:57.941Z,76.78
2022-10-25T23:41:24.714Z,76.65
2022-10-25T23:43:51.531Z,76.94
2022-10-25T23:46:18.605Z,76.92
2022-10-25T23:48:45.560Z,76.36
2022-10-25T23:51:16.055Z,76.31
2022-10-25T23:53:43.392Z,76.03
2022-10-25T23:56:12.617Z,76.39
2022-10-25T23:58:39.703Z,76.30
